sensor_id;sensor_type;location;lat;lon;timestamp;P1;durP1;ratioP1;P2;durP2;ratioP2
81365;SDS011;70822;51.990;22.766;2023-08-24T00:12:06;7.83;;;4.00;;
81365;SDS011;70822;51.990;22.766;2023-08-24T00:27:11;5.87;;;4.23;;
81365;SDS011;70822;51.990;22.766;2023-08-24T00:42:17;4.97;;;3.63;;
81365;SDS011;70822;51.990;22.766;2023-08-24T00:57:23;6.80;;;4.03;;
81365;SDS011;70822;51.990;22.766;2023-08-24T01:12:28;7.70;;;3.97;;
81365;SDS011;70822;51.990;22.766;2023-08-24T01:27:41;7.00;;;3.70;;
81365;SDS011;70822;51.990;22.766;2023-08-24T01:42:50;8.13;;;3.70;;
81365;SDS011;70822;51.990;22.766;2023-08-24T01:57:59;7.97;;;3.90;;
81365;SDS011;70822;51.990;22.766;2023-08-24T02:13:05;6.40;;;4.07;;
81365;SDS011;70822;51.990;22.766;2023-08-24T02:28:10;8.70;;;4.10;;
81365;SDS011;70822;51.990;22.766;2023-08-24T02:43:15;4.97;;;3.60;;
81365;SDS011;70822;51.990;22.766;2023-08-24T02:58:19;5.53;;;4.20;;
81365;SDS011;70822;51.990;22.766;2023-08-24T03:13:24;14.20;;;3.80;;
81365;SDS011;70822;51.990;22.766;2023-08-24T03:28:30;6.50;;;3.47;;
81365;SDS011;70822;51.990;22.766;2023-08-24T03:43:36;3.77;;;3.33;;
81365;SDS011;70822;51.990;22.766;2023-08-24T03:58:41;7.70;;;4.10;;
81365;SDS011;70822;51.990;22.766;2023-08-24T04:13:46;7.30;;;4.37;;
81365;SDS011;70822;51.990;22.766;2023-08-24T04:28:51;7.93;;;4.63;;
81365;SDS011;70822;51.990;22.766;2023-08-24T04:43:56;6.63;;;4.20;;
81365;SDS011;70822;51.990;22.766;2023-08-24T04:59:01;7.77;;;3.93;;
81365;SDS011;70822;51.990;22.766;2023-08-24T05:14:06;6.77;;;4.17;;
81365;SDS011;70822;51.990;22.766;2023-08-24T05:29:11;8.20;;;5.00;;
81365;SDS011;70822;51.990;22.766;2023-08-24T05:44:16;7.67;;;4.90;;
81365;SDS011;70822;51.990;22.766;2023-08-24T05:59:21;6.23;;;4.47;;
81365;SDS011;70822;51.990;22.766;2023-08-24T06:14:25;6.40;;;3.80;;
81365;SDS011;70822;51.990;22.766;2023-08-24T06:29:30;3.77;;;2.87;;
81365;SDS011;70822;51.990;22.766;2023-08-24T06:44:35;5.00;;;2.90;;
81365;SDS011;70822;51.990;22.766;2023-08-24T06:59:39;4.60;;;2.90;;
81365;SDS011;70822;51.990;22.766;2023-08-24T07:14:45;5.40;;;2.27;;
81365;SDS011;70822;51.990;22.766;2023-08-24T07:29:50;4.57;;;2.57;;
81365;SDS011;70822;51.990;22.766;2023-08-24T07:44:55;4.53;;;2.47;;
81365;SDS011;70822;51.990;22.766;2023-08-24T08:00:00;3.50;;;2.10;;
81365;SDS011;70822;51.990;22.766;2023-08-24T08:15:14;3.53;;;2.03;;
81365;SDS011;70822;51.990;22.766;2023-08-24T08:30:20;3.67;;;2.00;;
81365;SDS011;70822;51.990;22.766;2023-08-24T08:45:25;3.83;;;2.00;;
81365;SDS011;70822;51.990;22.766;2023-08-24T09:00:31;3.73;;;2.23;;
81365;SDS011;70822;51.990;22.766;2023-08-24T09:15:36;4.83;;;1.87;;
81365;SDS011;70822;51.990;22.766;2023-08-24T09:30:41;3.77;;;1.70;;
81365;SDS011;70822;51.990;22.766;2023-08-24T09:45:49;2.33;;;1.93;;
81365;SDS011;70822;51.990;22.766;2023-08-24T10:00:55;3.90;;;1.90;;
81365;SDS011;70822;51.990;22.766;2023-08-24T10:16:00;2.40;;;1.60;;
81365;SDS011;70822;51.990;22.766;2023-08-24T10:31:06;1.83;;;1.40;;
81365;SDS011;70822;51.990;22.766;2023-08-24T10:46:13;1.60;;;1.47;;
81365;SDS011;70822;51.990;22.766;2023-08-24T11:01:20;1.87;;;1.53;;
81365;SDS011;70822;51.990;22.766;2023-08-24T11:31:49;3.13;;;1.80;;
81365;SDS011;70822;51.990;22.766;2023-08-24T11:46:57;4.93;;;2.00;;
81365;SDS011;70822;51.990;22.766;2023-08-24T12:02:03;2.73;;;1.97;;
81365;SDS011;70822;51.990;22.766;2023-08-24T12:17:10;2.93;;;1.87;;
81365;SDS011;70822;51.990;22.766;2023-08-24T12:32:15;2.43;;;2.00;;
81365;SDS011;70822;51.990;22.766;2023-08-24T12:47:24;2.13;;;1.93;;
81365;SDS011;70822;51.990;22.766;2023-08-24T13:02:29;2.53;;;1.93;;
81365;SDS011;70822;51.990;22.766;2023-08-24T13:17:40;6.30;;;2.20;;
81365;SDS011;70822;51.990;22.766;2023-08-24T13:32:44;3.10;;;1.80;;
81365;SDS011;70822;51.990;22.766;2023-08-24T13:47:49;3.17;;;2.10;;
81365;SDS011;70822;51.990;22.766;2023-08-24T14:02:54;2.83;;;1.63;;
81365;SDS011;70822;51.990;22.766;2023-08-24T14:17:59;4.90;;;2.33;;
81365;SDS011;70822;51.990;22.766;2023-08-24T14:33:05;3.23;;;2.60;;
81365;SDS011;70822;51.990;22.766;2023-08-24T14:48:09;2.73;;;2.40;;
81365;SDS011;70822;51.990;22.766;2023-08-24T15:03:15;3.93;;;2.20;;
81365;SDS011;70822;51.990;22.766;2023-08-24T15:18:23;5.53;;;2.43;;
81365;SDS011;70822;51.990;22.766;2023-08-24T15:33:29;8.03;;;2.30;;
81365;SDS011;70822;51.990;22.766;2023-08-24T15:48:35;6.43;;;2.43;;
81365;SDS011;70822;51.990;22.766;2023-08-24T16:03:41;4.40;;;2.13;;
81365;SDS011;70822;51.990;22.766;2023-08-24T16:18:47;4.70;;;2.70;;
81365;SDS011;70822;51.990;22.766;2023-08-24T16:33:52;5.80;;;2.27;;
81365;SDS011;70822;51.990;22.766;2023-08-24T16:48:57;10.87;;;3.60;;
81365;SDS011;70822;51.990;22.766;2023-08-24T17:04:02;7.13;;;2.90;;
81365;SDS011;70822;51.990;22.766;2023-08-24T17:19:08;40.73;;;22.90;;
81365;SDS011;70822;51.990;22.766;2023-08-24T17:34:13;34.80;;;11.70;;
81365;SDS011;70822;51.990;22.766;2023-08-24T17:49:17;18.77;;;7.97;;
81365;SDS011;70822;51.990;22.766;2023-08-24T18:04:23;15.30;;;8.00;;
81365;SDS011;70822;51.990;22.766;2023-08-24T18:19:27;15.53;;;9.23;;
81365;SDS011;70822;51.990;22.766;2023-08-24T18:34:33;14.80;;;7.27;;
81365;SDS011;70822;51.990;22.766;2023-08-24T18:49:39;13.63;;;6.93;;
81365;SDS011;70822;51.990;22.766;2023-08-24T19:04:45;10.43;;;6.20;;
81365;SDS011;70822;51.990;22.766;2023-08-24T19:19:50;13.77;;;5.70;;
81365;SDS011;70822;51.990;22.766;2023-08-24T19:34:56;12.87;;;5.40;;
81365;SDS011;70822;51.990;22.766;2023-08-24T19:50:03;11.30;;;5.50;;
81365;SDS011;70822;51.990;22.766;2023-08-24T20:05:11;11.93;;;5.17;;
81365;SDS011;70822;51.990;22.766;2023-08-24T20:20:16;11.50;;;4.00;;
81365;SDS011;70822;51.990;22.766;2023-08-24T20:35:27;9.30;;;4.50;;
81365;SDS011;70822;51.990;22.766;2023-08-24T20:50:32;11.70;;;5.03;;
81365;SDS011;70822;51.990;22.766;2023-08-24T21:05:37;10.60;;;5.40;;
81365;SDS011;70822;51.990;22.766;2023-08-24T21:20:41;10.97;;;5.87;;
81365;SDS011;70822;51.990;22.766;2023-08-24T21:35:46;13.30;;;6.50;;
81365;SDS011;70822;51.990;22.766;2023-08-24T21:50:51;14.13;;;5.83;;
81365;SDS011;70822;51.990;22.766;2023-08-24T22:05:56;17.80;;;8.00;;
81365;SDS011;70822;51.990;22.766;2023-08-24T22:21:03;16.93;;;6.90;;
81365;SDS011;70822;51.990;22.766;2023-08-24T22:36:09;15.30;;;7.53;;
81365;SDS011;70822;51.990;22.766;2023-08-24T22:51:15;12.63;;;7.73;;
81365;SDS011;70822;51.990;22.766;2023-08-24T23:06:20;13.00;;;7.00;;
81365;SDS011;70822;51.990;22.766;2023-08-24T23:21:26;10.97;;;6.43;;
81365;SDS011;70822;51.990;22.766;2023-08-24T23:36:31;9.50;;;6.97;;
81365;SDS011;70822;51.990;22.766;2023-08-24T23:51:35;7.47;;;5.87;;
